createdAt,value
2023-11-07T00:00:50.198Z,100364.25
2023-11-07T00:01:51.860Z,100363.25
2023-11-07T00:02:55.014Z,100366.00
2023-11-07T00:03:57.760Z,100354.38
2023-11-07T00:04:59.935Z,100366.81
2023-11-07T00:06:01.535Z,100366.00
2023-11-07T00:07:03.768Z,100374.97
2023-11-07T00:08:05.242Z,100369.53
2023-11-07T00:09:06.839Z,100363.28
2023-11-07T00:10:09.129Z,100375.13
2023-11-07T00:11:10.601Z,100382.50
2023-11-07T00:12:12.629Z,100378.88
2023-11-07T00:13:14.145Z,100380.66
2023-11-07T00:14:15.600Z,100382.66
2023-11-07T00:15:17.925Z,100376.31
2023-11-07T00:16:19.390Z,100377.13
2023-11-07T00:17:22.159Z,100376.31
2023-11-07T00:18:23.771Z,100375.25
2023-11-07T00:19:28.023Z,100383.47
2023-11-07T00:20:29.504Z,100382.56
2023-11-07T00:21:31.074Z,100381.75
2023-11-07T00:22:32.809Z,100387.25
2023-11-07T00:23:34.410Z,100384.63
2023-11-07T00:24:36.000Z,100387.38
2023-11-07T00:25:37.584Z,100379.34
2023-11-07T00:26:39.037Z,100367.06
2023-11-07T00:27:40.859Z,100384.06
2023-11-07T00:28:42.318Z,100390.41
2023-11-07T00:29:46.166Z,100392.22
2023-11-07T00:30:49.126Z,100393.16
2023-11-07T00:31:53.702Z,100391.56
2023-11-07T00:32:55.281Z,100394.22
2023-11-07T00:33:56.945Z,100399.66
2023-11-07T00:34:58.999Z,100402.38
2023-11-07T00:36:00.388Z,100399.66
2023-11-07T00:37:01.909Z,100405.09
2023-11-07T00:38:05.416Z,100403.44
2023-11-07T00:39:07.981Z,100397.09
2023-11-07T00:40:10.899Z,100406.22
2023-11-07T00:41:14.308Z,100414.44
2023-11-07T00:42:15.786Z,100413.47
2023-11-07T00:43:18.517Z,100409.84
2023-11-07T00:44:20.003Z,100416.06
2023-11-07T00:45:21.501Z,100416.09
2023-11-07T00:46:23.124Z,100419.81
2023-11-07T00:47:24.620Z,100417.94
2023-11-07T00:48:26.278Z,100425.25
2023-11-07T00:49:28.560Z,100420.75
2023-11-07T00:50:30.056Z,100425.31
2023-11-07T00:51:31.788Z,100423.69
2023-11-07T00:52:33.241Z,100428.13
2023-11-07T00:53:34.745Z,100425.34
2023-11-07T00:54:36.228Z,100433.72
2023-11-07T00:55:37.693Z,100436.44
2023-11-07T00:56:39.206Z,100427.41
2023-11-07T00:57:40.668Z,100437.28
2023-11-07T00:58:42.110Z,100430.94
2023-11-07T00:59:43.622Z,100425.56
2023-11-07T01:00:46.167Z,100436.56
2023-11-07T01:01:47.651Z,100439.31
2023-11-07T01:02:49.440Z,100438.41
2023-11-07T01:03:51.174Z,100433.94
2023-11-07T01:04:53.407Z,100444.94
2023-11-07T01:05:55.616Z,100436.94
2023-11-07T01:06:57.551Z,100444.03
2023-11-07T01:07:59.077Z,100436.03
2023-11-07T01:09:00.534Z,100439.78
2023-11-07T01:10:02.027Z,100442.50
2023-11-07T01:11:04.404Z,100444.38
2023-11-07T01:12:06.597Z,100444.34
2023-11-07T01:13:08.721Z,100445.28
2023-11-07T01:14:10.217Z,100448.00
2023-11-07T01:15:11.741Z,100443.53
2023-11-07T01:16:13.525Z,100457.16
2023-11-07T01:17:15.015Z,100447.28
2023-11-07T01:18:16.813Z,100451.75
2023-11-07T01:19:18.528Z,100450.13
2023-11-07T01:20:20.159Z,100462.66
2023-11-07T01:21:21.598Z,100455.44
2023-11-07T01:22:23.017Z,100452.59
2023-11-07T01:23:24.490Z,100456.28
2023-11-07T01:24:25.924Z,100445.41
2023-11-07T01:25:28.709Z,100453.56
2023-11-07T01:26:30.282Z,100456.34
2023-11-07T01:27:32.466Z,100459.00
2023-11-07T01:28:33.937Z,100452.84
2023-11-07T01:29:35.541Z,100462.75
2023-11-07T01:30:37.040Z,100455.56
2023-11-07T01:31:38.467Z,100458.34
2023-11-07T01:32:42.424Z,100456.66
2023-11-07T01:33:44.007Z,100455.88
2023-11-07T01:34:45.573Z,100464.97
2023-11-07T01:35:47.058Z,100463.06
2023-11-07T01:36:48.957Z,100460.34
2023-11-07T01:37:52.176Z,100457.75
2023-11-07T01:38:54.740Z,100461.31
2023-11-07T01:39:56.307Z,100460.47
2023-11-07T01:40:57.740Z,100459.63
2023-11-07T01:41:59.298Z,100461.44
2023-11-07T01:43:14.954Z,100461.44
2023-11-07T01:44:16.420Z,100464.25
2023-11-07T01:45:18.500Z,100459.84
2023-11-07T01:46:19.861Z,100468.00
2023-11-07T01:47:24.824Z,100471.59
2023-11-07T01:48:27.306Z,100468.91
2023-11-07T01:49:29.086Z,100469.81
2023-11-07T01:50:30.877Z,100468.03
2023-11-07T01:51:32.574Z,100477.16
2023-11-07T01:52:35.771Z,100468.00
2023-11-07T01:53:37.378Z,100468.91
2023-11-07T01:54:39.446Z,100472.53
2023-11-07T01:55:41.716Z,100468.06
2023-11-07T01:56:44.344Z,100472.63
2023-11-07T01:57:47.216Z,100470.88
2023-11-07T01:58:49.327Z,100469.03
2023-11-07T01:59:50.832Z,100473.59
2023-11-07T02:00:54.693Z,100478.97
2023-11-07T02:01:59.817Z,100480.63
2023-11-07T02:03:01.377Z,100472.41
2023-11-07T02:04:04.151Z,100476.94
2023-11-07T02:05:08.079Z,100475.22
2023-11-07T02:06:09.754Z,100476.13
2023-11-07T02:07:11.303Z,100474.22
2023-11-07T02:08:12.911Z,100477.72
2023-11-07T02:09:14.386Z,100478.63
2023-11-07T02:10:16.009Z,100473.22
2023-11-07T02:11:17.519Z,100475.91
2023-11-07T02:12:18.974Z,100478.63
2023-11-07T02:13:20.487Z,100477.72
2023-11-07T02:14:36.768Z,100479.63
2023-11-07T02:15:39.187Z,100473.31
2023-11-07T02:16:40.644Z,100482.41
2023-11-07T02:17:42.199Z,100474.22
2023-11-07T02:18:43.846Z,100483.31
2023-11-07T02:19:45.362Z,100489.66
2023-11-07T02:20:47.239Z,100490.50
2023-11-07T02:21:52.306Z,100485.97
2023-11-07T02:23:00.832Z,100486.88
2023-11-07T02:24:02.450Z,100486.06
2023-11-07T02:25:04.189Z,100494.19
2023-11-07T02:26:05.660Z,100492.47
2023-11-07T02:27:07.871Z,100494.25
2023-11-07T02:28:09.776Z,100490.56
2023-11-07T02:29:11.264Z,100488.78
2023-11-07T02:30:13.915Z,100486.91
2023-11-07T02:31:15.428Z,100486.88
2023-11-07T02:32:16.882Z,100491.41
2023-11-07T02:33:21.126Z,100488.59
2023-11-07T02:34:22.757Z,100490.53
2023-11-07T02:35:24.888Z,100488.66
2023-11-07T02:36:26.335Z,100487.84
2023-11-07T02:37:27.798Z,100488.69
2023-11-07T02:38:30.115Z,100491.38
2023-11-07T02:39:31.744Z,100494.00
2023-11-07T02:40:33.190Z,100490.41
2023-11-07T02:41:35.289Z,100495.94
2023-11-07T02:42:36.975Z,100498.66
2023-11-07T02:43:38.768Z,100490.53
2023-11-07T02:44:40.239Z,100496.78
2023-11-07T02:45:41.707Z,100491.41
2023-11-07T02:46:43.158Z,100494.91
2023-11-07T02:47:44.697Z,100500.34
2023-11-07T02:48:46.378Z,100497.69
2023-11-07T02:49:47.916Z,100492.38
2023-11-07T02:50:49.452Z,100502.44
2023-11-07T02:51:50.958Z,100501.47
2023-11-07T02:52:52.645Z,100506.84
2023-11-07T02:53:54.472Z,100501.38
2023-11-07T02:54:56.105Z,100506.81
2023-11-07T02:55:57.522Z,100502.31
2023-11-07T02:56:59.053Z,100505.13
2023-11-07T02:58:00.903Z,100499.78
2023-11-07T02:59:02.612Z,100507.03
2023-11-07T03:00:05.353Z,100509.75
2023-11-07T03:01:07.224Z,100510.75
2023-11-07T03:02:08.899Z,100518.91
2023-11-07T03:03:10.998Z,100520.75
2023-11-07T03:04:12.949Z,100513.56
2023-11-07T03:05:14.541Z,100523.47
2023-11-07T03:06:16.444Z,100514.38
2023-11-07T03:07:18.153Z,100512.47
2023-11-07T03:08:19.669Z,100515.19
2023-11-07T03:09:21.225Z,100516.19
2023-11-07T03:10:22.773Z,100515.28
2023-11-07T03:11:24.243Z,100514.47
2023-11-07T03:12:26.607Z,100520.75
2023-11-07T03:13:28.249Z,100519.84
2023-11-07T03:14:29.854Z,100521.72
2023-11-07T03:15:31.672Z,100517.25
2023-11-07T03:16:35.081Z,100522.66
2023-11-07T03:17:36.728Z,100525.47
2023-11-07T03:18:38.828Z,100524.53
2023-11-07T03:19:40.311Z,100532.66
2023-11-07T03:20:42.206Z,100523.63
2023-11-07T03:21:43.675Z,100520.84
2023-11-07T03:22:45.121Z,100518.06
2023-11-07T03:23:46.633Z,100526.19
2023-11-07T03:24:48.882Z,100527.03
2023-11-07T03:25:50.478Z,100530.75
2023-11-07T03:26:51.969Z,100536.19
2023-11-07T03:27:53.416Z,100529.06
2023-11-07T03:28:54.902Z,100530.81
2023-11-07T03:29:56.427Z,100530.75
2023-11-07T03:31:00.688Z,100539.81
2023-11-07T03:32:02.142Z,100530.84
2023-11-07T03:33:03.825Z,100541.66
2023-11-07T03:34:05.607Z,100537.16
2023-11-07T03:35:07.755Z,100548.91
2023-11-07T03:36:09.482Z,100534.44
2023-11-07T03:37:11.004Z,100541.75
2023-11-07T03:38:12.453Z,100536.38
2023-11-07T03:39:14.044Z,100536.44
2023-11-07T03:40:15.795Z,100552.75
2023-11-07T03:41:17.857Z,100550.13
2023-11-07T03:42:19.668Z,100543.00
2023-11-07T03:43:23.715Z,100540.31
2023-11-07T03:44:25.321Z,100540.44
2023-11-07T03:45:26.776Z,100547.69
2023-11-07T03:46:28.279Z,100540.50
2023-11-07T03:47:30.809Z,100540.47
2023-11-07T03:48:32.454Z,100540.53
2023-11-07T03:49:34.479Z,100534.22
2023-11-07T03:50:36.753Z,100546.81
2023-11-07T03:51:38.279Z,100551.38
2023-11-07T03:52:39.757Z,100550.47
2023-11-07T03:53:41.290Z,100546.88
2023-11-07T03:54:42.731Z,100543.28
2023-11-07T03:55:44.165Z,100551.44
2023-11-07T03:56:49.300Z,100553.19
2023-11-07T03:57:50.941Z,100560.50
2023-11-07T03:58:52.515Z,100547.81
2023-11-07T03:59:54.076Z,100555.06
2023-11-07T04:00:55.570Z,100561.38
2023-11-07T04:01:57.757Z,100561.41
2023-11-07T04:02:59.305Z,100563.19
2023-11-07T04:04:00.919Z,100556.84
2023-11-07T04:05:02.558Z,100557.72
2023-11-07T04:06:04.329Z,100558.63
2023-11-07T04:07:05.819Z,100564.09
2023-11-07T04:08:07.257Z,100555.06
2023-11-07T04:09:08.972Z,100559.59
2023-11-07T04:10:10.880Z,100564.09
2023-11-07T04:11:12.376Z,100557.75
2023-11-07T04:12:13.823Z,100569.53
2023-11-07T04:13:15.332Z,100561.47
2023-11-07T04:14:19.003Z,100567.78
2023-11-07T04:15:23.481Z,100564.16
2023-11-07T04:16:25.111Z,100560.50
2023-11-07T04:17:26.636Z,100563.22
2023-11-07T04:18:28.305Z,100567.72
2023-11-07T04:19:29.817Z,100569.50
2023-11-07T04:20:34.165Z,100570.38
2023-11-07T04:21:36.923Z,100559.59
2023-11-07T04:22:38.933Z,100567.69
2023-11-07T04:23:41.270Z,100567.72
2023-11-07T04:24:43.231Z,100570.47
2023-11-07T04:25:45.274Z,100570.41
2023-11-07T04:26:46.683Z,100573.13
2023-11-07T04:27:48.679Z,100570.47
2023-11-07T04:28:50.165Z,100562.28
2023-11-07T04:29:51.716Z,100567.69
2023-11-07T04:30:56.228Z,100573.09
2023-11-07T04:31:57.729Z,100578.50
2023-11-07T04:32:59.248Z,100577.59
2023-11-07T04:34:00.869Z,100568.63
2023-11-07T04:35:04.082Z,100575.88
2023-11-07T04:36:06.905Z,100572.25
2023-11-07T04:37:08.494Z,100577.63
2023-11-07T04:38:10.046Z,100574.88
2023-11-07T04:39:11.864Z,100574.88
2023-11-07T04:40:14.066Z,100583.94
2023-11-07T04:41:15.537Z,100581.22
2023-11-07T04:42:16.994Z,100578.44
2023-11-07T04:43:18.487Z,100576.69
2023-11-07T04:44:21.269Z,100580.31
2023-11-07T04:45:23.144Z,100582.16
2023-11-07T04:46:24.706Z,100572.13
2023-11-07T04:47:26.160Z,100583.88
2023-11-07T04:48:28.062Z,100578.44
2023-11-07T04:49:31.079Z,100582.88
2023-11-07T04:50:34.589Z,100579.28
2023-11-07T04:51:37.440Z,100582.00
2023-11-07T04:52:39.052Z,100576.56
2023-11-07T04:53:41.013Z,100579.31
2023-11-07T04:54:42.525Z,100585.66
2023-11-07T04:55:45.127Z,100584.78
2023-11-07T04:56:46.740Z,100578.47
2023-11-07T04:57:48.313Z,100578.50
2023-11-07T04:58:57.255Z,100586.56
2023-11-07T05:00:00.390Z,100581.22
2023-11-07T05:01:03.130Z,100578.56
2023-11-07T05:02:07.260Z,100580.34
2023-11-07T05:03:10.268Z,100569.53
2023-11-07T05:04:11.863Z,100576.69
2023-11-07T05:05:15.653Z,100571.34
2023-11-07T05:06:20.524Z,100576.69
2023-11-07T05:07:22.233Z,100571.22
2023-11-07T05:08:23.674Z,100571.31
2023-11-07T05:09:26.554Z,100573.03
2023-11-07T05:10:28.036Z,100577.47
2023-11-07T05:11:29.533Z,100581.13
2023-11-07T05:12:31.841Z,100572.06
2023-11-07T05:13:33.339Z,100585.63
2023-11-07T05:14:34.868Z,100584.72
2023-11-07T05:15:36.349Z,100587.41
2023-11-07T05:16:38.806Z,100588.38
2023-11-07T05:17:41.004Z,100582.06
2023-11-07T05:18:42.663Z,100583.94
2023-11-07T05:19:44.196Z,100583.94
2023-11-07T05:20:46.725Z,100581.22
2023-11-07T05:21:48.271Z,100582.97
2023-11-07T05:22:49.769Z,100587.53
2023-11-07T05:23:51.282Z,100587.63
2023-11-07T05:24:52.768Z,100576.81
2023-11-07T05:25:54.312Z,100587.63
2023-11-07T05:26:55.892Z,100590.31
2023-11-07T05:27:57.399Z,100600.22
2023-11-07T05:29:00.717Z,100597.53
2023-11-07T05:30:02.236Z,100593.03
2023-11-07T05:31:04.876Z,100597.53
2023-11-07T05:32:06.668Z,100593.88
2023-11-07T05:33:08.408Z,100603.81
2023-11-07T05:34:10.054Z,100596.59
2023-11-07T05:35:11.569Z,100593.94
2023-11-07T05:36:17.063Z,100600.22
2023-11-07T05:37:18.930Z,100605.72
2023-11-07T05:38:21.866Z,100601.19
2023-11-07T05:39:28.478Z,100603.88
2023-11-07T05:40:30.035Z,100600.38
2023-11-07T05:41:31.530Z,100603.88
2023-11-07T05:42:32.985Z,100610.19
2023-11-07T05:43:34.447Z,100603.88
2023-11-07T05:44:35.997Z,100609.31
2023-11-07T05:45:37.458Z,100604.75
2023-11-07T05:46:38.927Z,100604.75
2023-11-07T05:47:42.202Z,100612.88
2023-11-07T05:48:43.951Z,100610.22
2023-11-07T05:49:46.770Z,100609.31
2023-11-07T05:50:48.463Z,100618.31
2023-11-07T05:51:49.949Z,100621.94
2023-11-07T05:52:51.398Z,100616.50
2023-11-07T05:53:52.909Z,100624.63
2023-11-07T05:54:54.805Z,100625.56
2023-11-07T05:55:57.060Z,100634.59
2023-11-07T05:56:58.699Z,100622.78
2023-11-07T05:58:00.197Z,100627.31
2023-11-07T05:59:01.980Z,100631.91
2023-11-07T06:00:07.644Z,100628.34
2023-11-07T06:01:09.218Z,100633.78
2023-11-07T06:02:11.825Z,100634.69
2023-11-07T06:03:14.656Z,100637.41
2023-11-07T06:04:34.454Z,100631.06
2023-11-07T06:05:36.441Z,100627.50
2023-11-07T06:06:37.912Z,100627.50
2023-11-07T06:07:39.540Z,100626.69
2023-11-07T06:08:41.126Z,100627.59
2023-11-07T06:09:42.605Z,100624.91
2023-11-07T06:10:44.344Z,100633.06
2023-11-07T06:11:45.849Z,100625.88
2023-11-07T06:12:47.299Z,100625.88
2023-11-07T06:13:48.761Z,100629.47
2023-11-07T06:14:50.288Z,100634.88
2023-11-07T06:15:51.818Z,100627.66
2023-11-07T06:16:55.855Z,100630.38
2023-11-07T06:17:57.855Z,100631.28
2023-11-07T06:18:59.300Z,100638.47
2023-11-07T06:20:01.075Z,100641.19
2023-11-07T06:21:02.651Z,100638.50
2023-11-07T06:22:04.737Z,100643.97
2023-11-07T06:23:06.744Z,100646.63
2023-11-07T06:24:08.577Z,100639.41
2023-11-07T06:25:12.002Z,100647.53
2023-11-07T06:26:13.471Z,100643.91
2023-11-07T06:27:15.197Z,100644.81
2023-11-07T06:28:16.908Z,100659.25
2023-11-07T06:29:18.362Z,100650.19
2023-11-07T06:30:22.069Z,100658.28
2023-11-07T06:31:27.882Z,100657.38
2023-11-07T06:32:29.394Z,100656.47
2023-11-07T06:33:30.993Z,100652.84
2023-11-07T06:34:32.849Z,100649.22
2023-11-07T06:35:34.849Z,100654.69
2023-11-07T06:36:36.285Z,100660.06
2023-11-07T06:37:37.724Z,100661.88
2023-11-07T06:38:39.508Z,100661.00
2023-11-07T06:39:41.004Z,100656.44
2023-11-07T06:40:42.491Z,100654.63
2023-11-07T06:41:44.102Z,100654.59
2023-11-07T06:42:46.973Z,100653.66
2023-11-07T06:43:49.562Z,100656.38
2023-11-07T06:44:50.999Z,100656.38
2023-11-07T06:45:52.533Z,100651.88
2023-11-07T06:46:54.667Z,100656.41
2023-11-07T06:47:56.359Z,100653.69
2023-11-07T06:48:59.487Z,100655.50
2023-11-07T06:50:02.692Z,100651.88
2023-11-07T06:51:04.373Z,100654.59
2023-11-07T06:52:06.872Z,100655.50
2023-11-07T06:53:08.556Z,100652.78
2023-11-07T06:54:10.356Z,100648.31
2023-11-07T06:55:14.279Z,100652.75
2023-11-07T06:56:16.334Z,100659.09
2023-11-07T06:57:17.761Z,100658.25
2023-11-07T06:58:19.242Z,100654.59
2023-11-07T06:59:20.766Z,100657.28
2023-11-07T07:00:26.078Z,100659.09
2023-11-07T07:01:29.215Z,100653.72
2023-11-07T07:02:30.717Z,100650.94
2023-11-07T07:03:32.365Z,100667.19
2023-11-07T07:04:34.657Z,100660.91
2023-11-07T07:05:36.261Z,100662.69
2023-11-07T07:06:38.220Z,100660.91
2023-11-07T07:07:41.516Z,100654.59
2023-11-07T07:08:43.022Z,100661.78
2023-11-07T07:09:44.443Z,100663.56
2023-11-07T07:10:46.084Z,100660.88
2023-11-07T07:11:48.777Z,100667.16
2023-11-07T07:12:50.371Z,100670.75
2023-11-07T07:13:53.645Z,100658.16
2023-11-07T07:14:55.694Z,100667.16
2023-11-07T07:15:57.483Z,100674.38
2023-11-07T07:17:02.553Z,100667.97
2023-11-07T07:18:07.019Z,100674.28
2023-11-07T07:19:09.606Z,100681.44
2023-11-07T07:20:14.696Z,100674.22
2023-11-07T07:21:17.500Z,100669.66
2023-11-07T07:22:19.168Z,100681.38
2023-11-07T07:23:25.407Z,100674.09
2023-11-07T07:24:28.631Z,100673.16
2023-11-07T07:25:30.195Z,100681.31
2023-11-07T07:26:31.725Z,100677.66
2023-11-07T07:27:35.083Z,100663.22
2023-11-07T07:28:40.083Z,100679.41
2023-11-07T07:29:42.178Z,100668.56
2023-11-07T07:30:46.514Z,100675.78
2023-11-07T07:31:47.990Z,100673.06
2023-11-07T07:32:49.528Z,100675.66
2023-11-07T07:33:53.483Z,100673.84
2023-11-07T07:34:54.973Z,100674.66
2023-11-07T07:36:03.963Z,100680.91
2023-11-07T07:37:07.495Z,100686.31
2023-11-07T07:38:10.245Z,100676.25
2023-11-07T07:39:28.989Z,100678.88
2023-11-07T07:40:32.344Z,100680.59
2023-11-07T07:41:33.869Z,100674.19
2023-11-07T07:42:37.077Z,100675.00
2023-11-07T07:43:39.862Z,100676.75
2023-11-07T07:44:41.496Z,100682.13
2023-11-07T07:45:43.894Z,100684.78
2023-11-07T07:46:45.800Z,100675.59
2023-11-07T07:47:47.810Z,100670.94
2023-11-07T07:48:50.028Z,100673.53
2023-11-07T07:49:51.649Z,100673.50
2023-11-07T07:50:53.242Z,100681.59
2023-11-07T07:51:55.436Z,100684.25
2023-11-07T07:52:57.493Z,100674.25
2023-11-07T07:53:59.088Z,100671.44
2023-11-07T07:55:10.043Z,100679.59
2023-11-07T07:56:17.952Z,100677.59
2023-11-07T07:57:19.606Z,100675.81
2023-11-07T07:58:21.157Z,100672.13
2023-11-07T07:59:25.961Z,100673.03
2023-11-07T08:00:32.369Z,100674.72
2023-11-07T08:01:36.700Z,100672.00
2023-11-07T08:02:39.860Z,100676.50
2023-11-07T08:03:42.484Z,100672.84
2023-11-07T08:04:44.027Z,100677.34
2023-11-07T08:05:46.009Z,100676.41
2023-11-07T08:06:48.152Z,100670.06
2023-11-07T08:07:49.995Z,100679.19
2023-11-07T08:08:51.504Z,100675.47
2023-11-07T08:09:53.053Z,100682.59
2023-11-07T08:11:01.581Z,100680.72
2023-11-07T08:12:09.567Z,100669.81
2023-11-07T08:13:11.647Z,100674.41
2023-11-07T08:14:13.533Z,100677.84
2023-11-07T08:15:15.035Z,100678.84
2023-11-07T08:16:16.516Z,100675.00
2023-11-07T08:17:18.608Z,100680.41
2023-11-07T08:18:20.311Z,100683.88
2023-11-07T08:19:23.526Z,100682.13
2023-11-07T08:20:25.925Z,100683.03
2023-11-07T08:21:27.399Z,100686.47
2023-11-07T08:22:28.878Z,100685.63
2023-11-07T08:23:30.393Z,100681.84
2023-11-07T08:24:31.921Z,100686.19
2023-11-07T08:25:34.148Z,100688.91
2023-11-07T08:26:36.946Z,100687.88
2023-11-07T08:27:40.115Z,100696.88
2023-11-07T08:28:44.749Z,100696.03
2023-11-07T08:29:46.220Z,100690.44
2023-11-07T08:30:48.176Z,100703.88
2023-11-07T08:31:49.629Z,100692.88
2023-11-07T08:32:52.254Z,100695.38
2023-11-07T08:33:53.997Z,100689.88
2023-11-07T08:34:55.522Z,100689.03
2023-11-07T08:35:57.930Z,100693.56
2023-11-07T08:37:07.189Z,100688.94
2023-11-07T08:38:13.076Z,100684.25
2023-11-07T08:39:25.486Z,100696.19
2023-11-07T08:40:27.061Z,100691.44
2023-11-07T08:41:28.560Z,100693.94
2023-11-07T08:42:32.035Z,100694.06
2023-11-07T08:43:33.670Z,100694.75
2023-11-07T08:44:35.386Z,100685.59
2023-11-07T08:45:36.952Z,100696.44
2023-11-07T08:46:38.427Z,100700.09
2023-11-07T08:47:39.968Z,100691.06
2023-11-07T08:48:45.666Z,100693.91
2023-11-07T08:49:47.428Z,100695.59
2023-11-07T08:50:49.028Z,100703.75
2023-11-07T08:51:53.407Z,100698.13
2023-11-07T08:52:55.197Z,100690.75
2023-11-07T08:53:57.675Z,100691.66
2023-11-07T08:55:02.737Z,100697.19
2023-11-07T08:56:04.569Z,100703.56
2023-11-07T08:57:06.179Z,100694.31
2023-11-07T08:58:07.721Z,100693.31
2023-11-07T08:59:09.629Z,100695.84
2023-11-07T09:00:22.486Z,100693.97
2023-11-07T09:01:24.820Z,100689.34
2023-11-07T09:02:26.390Z,100690.09
2023-11-07T09:03:28.624Z,100693.69
2023-11-07T09:04:30.144Z,100690.09
2023-11-07T09:05:32.070Z,100693.63
2023-11-07T09:06:33.624Z,100685.53
2023-11-07T09:07:36.322Z,100691.81
2023-11-07T09:08:37.968Z,100689.19
2023-11-07T09:09:40.850Z,100688.06
2023-11-07T09:10:42.308Z,100696.97
2023-11-07T09:11:44.776Z,100691.56
2023-11-07T09:12:46.421Z,100690.53
2023-11-07T09:13:47.868Z,100686.06
2023-11-07T09:14:49.441Z,100686.84
2023-11-07T09:15:50.924Z,100684.06
2023-11-07T09:16:53.836Z,100698.34
2023-11-07T09:17:55.398Z,100694.66
2023-11-07T09:18:57.044Z,100701.72
2023-11-07T09:19:58.701Z,100693.28
2023-11-07T09:21:00.370Z,100690.53
2023-11-07T09:22:02.272Z,100694.97
2023-11-07T09:23:04.922Z,100693.97
2023-11-07T09:24:06.894Z,100695.41
2023-11-07T09:25:09.078Z,100694.31
2023-11-07T09:26:10.513Z,100697.13
2023-11-07T09:27:12.318Z,100692.44
2023-11-07T09:28:14.099Z,100698.63
2023-11-07T09:29:17.714Z,100689.53
2023-11-07T09:30:19.476Z,100697.41
2023-11-07T09:31:20.952Z,100686.78
2023-11-07T09:32:23.436Z,100699.19
2023-11-07T09:33:25.000Z,100702.66
2023-11-07T09:34:26.681Z,100702.59
2023-11-07T09:35:28.385Z,100697.88
2023-11-07T09:36:31.289Z,100702.22
2023-11-07T09:37:34.463Z,100711.22
2023-11-07T09:38:46.944Z,100706.69
2023-11-07T09:39:55.131Z,100712.91
2023-11-07T09:40:58.076Z,100699.94
2023-11-07T09:42:00.044Z,100703.16
2023-11-07T09:43:03.200Z,100707.44
2023-11-07T09:44:05.149Z,100706.13
2023-11-07T09:45:10.785Z,100708.69
2023-11-07T09:46:12.978Z,100702.94
2023-11-07T09:47:14.662Z,100704.41
2023-11-07T09:48:19.420Z,100707.03
2023-11-07T09:49:21.085Z,100703.53
2023-11-07T09:50:23.430Z,100707.16
2023-11-07T09:51:26.867Z,100704.44
2023-11-07T09:52:29.005Z,100695.19
2023-11-07T09:53:31.791Z,100696.81
2023-11-07T09:54:34.845Z,100696.78
2023-11-07T09:55:39.035Z,100696.56
2023-11-07T09:56:41.315Z,100699.25
2023-11-07T09:57:43.823Z,100698.25
2023-11-07T09:58:51.666Z,100698.41
2023-11-07T09:59:55.512Z,100689.28
2023-11-07T10:00:59.610Z,100692.78
2023-11-07T10:02:01.147Z,100693.16
2023-11-07T10:03:03.663Z,100694.88
2023-11-07T10:04:05.618Z,100692.88
2023-11-07T10:05:08.230Z,100687.75
2023-11-07T10:06:09.951Z,100692.78
2023-11-07T10:07:12.246Z,100685.13
2023-11-07T10:08:13.874Z,100686.81
2023-11-07T10:09:18.019Z,100697.19
2023-11-07T10:10:19.950Z,100687.19
2023-11-07T10:11:21.483Z,100682.72
2023-11-07T10:12:23.020Z,100683.41
2023-11-07T10:13:24.498Z,100694.25
2023-11-07T10:14:27.367Z,100685.53
2023-11-07T10:15:29.028Z,100682.53
2023-11-07T10:16:42.506Z,100686.47
2023-11-07T10:18:01.171Z,100687.94
2023-11-07T10:19:05.788Z,100679.03
2023-11-07T10:20:09.095Z,100682.09
2023-11-07T10:21:10.697Z,100682.84
2023-11-07T10:22:12.250Z,100680.22
2023-11-07T10:23:13.975Z,100688.16
2023-11-07T10:24:16.966Z,100682.56
2023-11-07T10:25:29.308Z,100682.09
2023-11-07T10:26:31.430Z,100687.16
2023-11-07T10:27:32.905Z,100682.53
2023-11-07T10:28:34.358Z,100688.31
2023-11-07T10:29:40.397Z,100688.94
2023-11-07T10:30:47.804Z,100690.53
2023-11-07T10:32:10.334Z,100688.72
2023-11-07T10:33:14.047Z,100686.41
2023-11-07T10:34:20.681Z,100687.63
2023-11-07T10:35:22.508Z,100684.59
2023-11-07T10:36:24.168Z,100682.69
2023-11-07T10:37:33.739Z,100693.97
2023-11-07T10:38:39.550Z,100690.59
2023-11-07T10:39:41.051Z,100691.50
2023-11-07T10:40:42.577Z,100694.19
2023-11-07T10:41:47.224Z,100686.91
2023-11-07T10:42:50.336Z,100685.50
2023-11-07T10:43:51.778Z,100694.38
2023-11-07T10:45:01.366Z,100686.91
2023-11-07T10:46:10.194Z,100683.03
2023-11-07T10:47:12.167Z,100681.09
2023-11-07T10:48:13.980Z,100678.22
2023-11-07T10:49:16.561Z,100690.88
2023-11-07T10:50:18.695Z,100681.63
2023-11-07T10:51:20.872Z,100682.09
2023-11-07T10:52:22.394Z,100678.28
2023-11-07T10:53:23.875Z,100677.34
2023-11-07T10:54:31.363Z,100667.16
2023-11-07T10:55:32.852Z,100675.13
2023-11-07T10:56:37.387Z,100673.44
2023-11-07T10:57:47.436Z,100676.03
2023-11-07T10:59:01.560Z,100677.44
2023-11-07T11:00:12.162Z,100680.13
2023-11-07T11:01:15.358Z,100674.34
2023-11-07T11:02:20.222Z,100674.31
2023-11-07T11:03:22.956Z,100675.22
2023-11-07T11:04:28.814Z,100671.84
2023-11-07T11:05:32.884Z,100672.81
2023-11-07T11:06:34.678Z,100673.63
2023-11-07T11:07:37.770Z,100684.69
2023-11-07T11:08:40.100Z,100669.69
2023-11-07T11:09:42.770Z,100666.78
2023-11-07T11:10:44.520Z,100665.09
2023-11-07T11:11:49.692Z,100663.44
2023-11-07T11:12:51.820Z,100673.03
2023-11-07T11:13:53.705Z,100666.91
2023-11-07T11:14:55.138Z,100672.69
2023-11-07T11:15:58.605Z,100660.91
2023-11-07T11:17:25.551Z,100666.78
2023-11-07T11:19:02.036Z,100666.91
2023-11-07T11:20:11.772Z,100665.78
2023-11-07T11:21:19.782Z,100666.25
2023-11-07T11:22:35.927Z,100666.00
2023-11-07T11:23:46.847Z,100669.78
2023-11-07T11:24:48.283Z,100677.22
2023-11-07T11:26:05.905Z,100666.91
2023-11-07T11:27:25.758Z,100666.38
2023-11-07T11:28:43.891Z,100675.22
2023-11-07T11:29:50.231Z,100671.84
2023-11-07T11:30:56.389Z,100671.34
2023-11-07T11:31:58.520Z,100672.63
2023-11-07T11:33:11.152Z,100659.59
2023-11-07T11:34:33.201Z,100659.34
2023-11-07T11:35:39.303Z,100663.78
2023-11-07T11:36:45.407Z,100669.88
2023-11-07T11:38:20.801Z,100672.59
2023-11-07T11:39:31.727Z,100677.19
2023-11-07T11:40:56.672Z,100682.03
2023-11-07T11:42:00.126Z,100671.94
2023-11-07T11:43:04.976Z,100671.00
2023-11-07T11:44:16.483Z,100671.59
2023-11-07T11:45:40.402Z,100671.72
2023-11-07T11:46:47.943Z,100678.94
2023-11-07T11:47:52.319Z,100669.53
2023-11-07T11:49:08.906Z,100679.44
2023-11-07T11:50:17.026Z,100682.31
2023-11-07T11:51:38.541Z,100679.47
2023-11-07T11:52:40.892Z,100676.47
2023-11-07T11:53:47.835Z,100677.66
2023-11-07T11:54:53.393Z,100681.25
2023-11-07T11:56:00.755Z,100675.75
2023-11-07T11:57:02.282Z,100672.63
2023-11-07T11:58:17.840Z,100675.78
2023-11-07T11:59:20.546Z,100682.78
2023-11-07T12:00:22.668Z,100669.13